sensor_id;sensor_type;location;lat;lon;timestamp;pressure;altitude;pressure_sealevel;temperature;humidity
59240;BME280;45010;53.640;10.578;2023-03-01T00:00:36;102484.88;;;25.96;28.83
59240;BME280;45010;53.640;10.578;2023-03-01T00:03:37;102472.13;;;25.98;28.85
59240;BME280;45010;53.640;10.578;2023-03-01T00:06:37;102481.97;;;25.98;29.25
59240;BME280;45010;53.640;10.578;2023-03-01T00:09:38;102471.28;;;25.91;28.90
59240;BME280;45010;53.640;10.578;2023-03-01T00:12:38;102473.34;;;25.96;28.97
59240;BME280;45010;53.640;10.578;2023-03-01T00:15:39;102467.53;;;25.85;29.10
59240;BME280;45010;53.640;10.578;2023-03-01T00:18:40;102487.97;;;26.00;29.14
59240;BME280;45010;53.640;10.578;2023-03-01T00:21:41;102490.66;;;26.00;29.21
59240;BME280;45010;53.640;10.578;2023-03-01T00:24:41;102492.28;;;26.01;28.95
59240;BME280;45010;53.640;10.578;2023-03-01T00:27:41;102486.94;;;26.01;28.94
59240;BME280;45010;53.640;10.578;2023-03-01T00:30:42;102480.75;;;26.00;28.89
59240;BME280;45010;53.640;10.578;2023-03-01T00:33:42;102488.59;;;26.02;28.92
59240;BME280;45010;53.640;10.578;2023-03-01T00:36:42;102485.31;;;26.00;28.92
59240;BME280;45010;53.640;10.578;2023-03-01T00:39:43;102483.25;;;26.02;28.85
59240;BME280;45010;53.640;10.578;2023-03-01T00:42:43;102483.25;;;26.02;28.77
59240;BME280;45010;53.640;10.578;2023-03-01T00:45:43;102479.97;;;26.00;28.59
59240;BME280;45010;53.640;10.578;2023-03-01T00:48:44;102461.16;;;25.86;28.62
59240;BME280;45010;53.640;10.578;2023-03-01T00:51:45;102482.38;;;25.95;28.82
59240;BME280;45010;53.640;10.578;2023-03-01T00:54:45;102484.44;;;25.92;29.03
59240;BME280;45010;53.640;10.578;2023-03-01T00:57:46;102479.47;;;25.89;28.91
59240;BME280;45010;53.640;10.578;2023-03-01T01:00:46;102469.16;;;25.86;29.18
59240;BME280;45010;53.640;10.578;2023-03-01T01:03:53;102454.72;;;25.74;29.12
59240;BME280;45010;53.640;10.578;2023-03-01T01:06:53;102462.97;;;25.79;29.02
59240;BME280;45010;53.640;10.578;2023-03-01T01:09:54;102465.03;;;25.77;28.76
59240;BME280;45010;53.640;10.578;2023-03-01T01:12:54;102465.41;;;25.74;29.04
59240;BME280;45010;53.640;10.578;2023-03-01T01:16:00;102465.81;;;25.71;29.06
59240;BME280;45010;53.640;10.578;2023-03-01T01:19:00;102451.78;;;25.62;29.04
59240;BME280;45010;53.640;10.578;2023-03-01T01:22:01;102437.34;;;25.56;29.04
59240;BME280;45010;53.640;10.578;2023-03-01T01:25:01;102455.28;;;25.62;28.93
59240;BME280;45010;53.640;10.578;2023-03-01T01:28:02;102444.72;;;25.54;28.86
59240;BME280;45010;53.640;10.578;2023-03-01T01:31:03;102430.22;;;25.42;29.13
59240;BME280;45010;53.640;10.578;2023-03-01T01:34:06;102442.69;;;25.56;28.81
59240;BME280;45010;53.640;10.578;2023-03-01T01:37:06;102437.75;;;25.53;29.03
59240;BME280;45010;53.640;10.578;2023-03-01T01:40:09;102438.09;;;25.50;28.96
59240;BME280;45010;53.640;10.578;2023-03-01T01:43:31;102435.81;;;25.47;29.05
59240;BME280;45010;53.640;10.578;2023-03-01T01:46:32;102419.97;;;25.38;28.91
59240;BME280;45010;53.640;10.578;2023-03-01T01:52:39;102437.63;;;25.39;29.14
59240;BME280;45010;53.640;10.578;2023-03-01T01:55:43;102430.56;;;25.32;28.99
59240;BME280;45010;53.640;10.578;2023-03-01T01:58:45;102437.19;;;25.36;28.98
59240;BME280;45010;53.640;10.578;2023-03-01T02:01:47;102433.06;;;25.33;29.00
59240;BME280;45010;53.640;10.578;2023-03-01T02:04:49;102430.75;;;25.30;29.03
59240;BME280;45010;53.640;10.578;2023-03-01T02:07:52;102409.50;;;25.15;28.99
59240;BME280;45010;53.640;10.578;2023-03-01T02:10:54;102426.84;;;25.26;28.94
59240;BME280;45010;53.640;10.578;2023-03-01T02:13:55;102405.00;;;25.16;28.93
59240;BME280;45010;53.640;10.578;2023-03-01T02:16:56;102402.56;;;25.21;28.96
59240;BME280;45010;53.640;10.578;2023-03-01T02:20:10;102389.75;;;25.09;29.22
59240;BME280;45010;53.640;10.578;2023-03-01T02:23:14;102404.16;;;25.15;28.98
59240;BME280;45010;53.640;10.578;2023-03-01T02:26:28;102397.56;;;25.11;29.17
59240;BME280;45010;53.640;10.578;2023-03-01T02:29:32;102398.78;;;25.08;29.01
59240;BME280;45010;53.640;10.578;2023-03-01T02:32:32;102398.13;;;25.06;28.93
59240;BME280;45010;53.640;10.578;2023-03-01T02:35:37;102378.31;;;24.94;29.34
59240;BME280;45010;53.640;10.578;2023-03-01T02:38:40;102387.41;;;25.00;29.19
59240;BME280;45010;53.640;10.578;2023-03-01T02:41:43;102386.34;;;24.94;29.18
59240;BME280;45010;53.640;10.578;2023-03-01T02:44:45;102384.31;;;24.96;29.54
59240;BME280;45010;53.640;10.578;2023-03-01T02:47:45;102385.53;;;24.93;29.20
59240;BME280;45010;53.640;10.578;2023-03-01T02:51:07;102382.19;;;24.91;29.50
59240;BME280;45010;53.640;10.578;2023-03-01T02:54:33;102377.25;;;24.88;29.35
59240;BME280;45010;53.640;10.578;2023-03-01T02:57:38;102380.13;;;24.87;29.36
59240;BME280;45010;53.640;10.578;2023-03-01T03:00:41;102376.72;;;24.78;29.47
59240;BME280;45010;53.640;10.578;2023-03-01T03:03:45;102373.44;;;24.76;29.39
59240;BME280;45010;53.640;10.578;2023-03-01T03:06:47;102384.53;;;24.79;29.39
59240;BME280;45010;53.640;10.578;2023-03-01T03:09:47;102383.28;;;24.75;29.97
59240;BME280;45010;53.640;10.578;2023-03-01T03:12:57;102379.97;;;24.73;29.41
59240;BME280;45010;53.640;10.578;2023-03-01T03:15:58;102382.00;;;24.71;29.55
59240;BME280;45010;53.640;10.578;2023-03-01T03:18:58;102377.06;;;24.68;29.36
59240;BME280;45010;53.640;10.578;2023-03-01T03:22:04;102379.09;;;24.66;29.38
59240;BME280;45010;53.640;10.578;2023-03-01T03:25:09;102371.19;;;24.57;29.58
59240;BME280;45010;53.640;10.578;2023-03-01T03:28:10;102382.13;;;24.63;29.66
59240;BME280;45010;53.640;10.578;2023-03-01T03:31:10;102372.84;;;24.58;29.68
59240;BME280;45010;53.640;10.578;2023-03-01T03:34:11;102371.19;;;24.57;29.72
59240;BME280;45010;53.640;10.578;2023-03-01T03:37:17;102363.59;;;24.54;29.55
59240;BME280;45010;53.640;10.578;2023-03-01T03:40:40;102360.00;;;24.47;29.88
59240;BME280;45010;53.640;10.578;2023-03-01T03:43:41;102361.47;;;24.50;29.76
59240;BME280;45010;53.640;10.578;2023-03-01T03:46:42;102345.16;;;24.38;29.49
59240;BME280;45010;53.640;10.578;2023-03-01T03:49:42;102362.91;;;24.45;29.74
59240;BME280;45010;53.640;10.578;2023-03-01T03:52:43;102364.09;;;24.43;30.00
59240;BME280;45010;53.640;10.578;2023-03-01T03:55:44;102358.94;;;24.41;29.79
59240;BME280;45010;53.640;10.578;2023-03-01T03:58:44;102359.13;;;24.40;29.95
59240;BME280;45010;53.640;10.578;2023-03-01T04:01:44;102362.81;;;24.39;29.90
59240;BME280;45010;53.640;10.578;2023-03-01T04:04:45;102361.16;;;24.38;29.89
59240;BME280;45010;53.640;10.578;2023-03-01T04:07:45;102361.16;;;24.38;29.90
59240;BME280;45010;53.640;10.578;2023-03-01T04:10:48;102355.75;;;24.31;30.08
59240;BME280;45010;53.640;10.578;2023-03-01T04:13:49;102354.28;;;24.28;30.08
59240;BME280;45010;53.640;10.578;2023-03-01T04:16:50;102356.19;;;24.35;30.08
59240;BME280;45010;53.640;10.578;2023-03-01T04:19:50;102351.25;;;24.31;30.11
59240;BME280;45010;53.640;10.578;2023-03-01T04:23:03;102330.16;;;24.15;30.29
59240;BME280;45010;53.640;10.578;2023-03-01T04:26:10;102353.31;;;24.29;30.05
59240;BME280;45010;53.640;10.578;2023-03-01T04:29:10;102356.97;;;24.28;30.15
59240;BME280;45010;53.640;10.578;2023-03-01T04:32:11;102356.16;;;24.28;30.00
59240;BME280;45010;53.640;10.578;2023-03-01T04:35:13;102358.16;;;24.26;30.13
59240;BME280;45010;53.640;10.578;2023-03-01T04:38:14;102359.00;;;24.26;30.30
59240;BME280;45010;53.640;10.578;2023-03-01T04:41:16;102297.59;;;23.83;30.36
59240;BME280;45010;53.640;10.578;2023-03-01T04:44:17;102355.72;;;24.24;30.27
59240;BME280;45010;53.640;10.578;2023-03-01T04:47:17;102349.72;;;24.22;30.37
59240;BME280;45010;53.640;10.578;2023-03-01T04:50:19;102345.41;;;24.21;30.14
59240;BME280;45010;53.640;10.578;2023-03-01T04:53:23;102340.84;;;24.15;30.19
59240;BME280;45010;53.640;10.578;2023-03-01T04:56:24;102343.75;;;24.20;30.31
59240;BME280;45010;53.640;10.578;2023-03-01T04:59:25;102347.44;;;24.19;30.19
59240;BME280;45010;53.640;10.578;2023-03-01T05:02:25;102342.13;;;24.19;30.48
59240;BME280;45010;53.640;10.578;2023-03-01T05:05:37;102318.31;;;24.02;30.60
59240;BME280;45010;53.640;10.578;2023-03-01T05:08:41;102336.69;;;24.12;30.46
59240;BME280;45010;53.640;10.578;2023-03-01T05:11:42;102334.22;;;24.11;30.33
59240;BME280;45010;53.640;10.578;2023-03-01T05:14:42;102336.34;;;24.15;30.36
59240;BME280;45010;53.640;10.578;2023-03-01T05:17:42;102332.84;;;24.15;30.55
59240;BME280;45010;53.640;10.578;2023-03-01T05:20:43;102332.22;;;24.13;30.34
59240;BME280;45010;53.640;10.578;2023-03-01T05:23:44;102335.06;;;24.11;30.58
59240;BME280;45010;53.640;10.578;2023-03-01T05:26:45;102331.56;;;24.11;30.38
59240;BME280;45010;53.640;10.578;2023-03-01T05:29:48;102337.91;;;24.10;30.71
59240;BME280;45010;53.640;10.578;2023-03-01T05:32:50;102338.44;;;24.05;30.47
59240;BME280;45010;53.640;10.578;2023-03-01T05:35:59;102343.22;;;24.10;30.60
59240;BME280;45010;53.640;10.578;2023-03-01T05:39:00;102333.28;;;24.03;30.72
59240;BME280;45010;53.640;10.578;2023-03-01T05:42:01;102327.16;;;24.03;30.79
59240;BME280;45010;53.640;10.578;2023-03-01T05:45:01;102338.25;;;24.07;30.46
59240;BME280;45010;53.640;10.578;2023-03-01T05:48:01;102331.28;;;24.05;30.69
59240;BME280;45010;53.640;10.578;2023-03-01T05:51:02;102320.63;;;24.05;30.75
59240;BME280;45010;53.640;10.578;2023-03-01T05:54:02;102319.97;;;24.03;30.85
59240;BME280;45010;53.640;10.578;2023-03-01T05:57:05;102317.28;;;24.03;30.90
59240;BME280;45010;53.640;10.578;2023-03-01T06:00:09;102305.75;;;23.96;30.93
59240;BME280;45010;53.640;10.578;2023-03-01T06:03:11;102315.66;;;24.02;30.75
59240;BME280;45010;53.640;10.578;2023-03-01T06:06:12;102320.97;;;24.02;30.70
59240;BME280;45010;53.640;10.578;2023-03-01T06:09:12;102311.91;;;23.97;30.85
59240;BME280;45010;53.640;10.578;2023-03-01T06:12:13;102239.34;;;23.58;30.92
59240;BME280;45010;53.640;10.578;2023-03-01T06:15:15;102300.41;;;23.96;30.93
59240;BME280;45010;53.640;10.578;2023-03-01T06:18:16;102310.72;;;23.99;30.77
59240;BME280;45010;53.640;10.578;2023-03-01T06:21:16;102309.03;;;23.98;30.67
59240;BME280;45010;53.640;10.578;2023-03-01T06:24:17;102308.06;;;23.99;31.07
59240;BME280;45010;53.640;10.578;2023-03-01T06:27:17;102320.53;;;23.99;31.04
59240;BME280;45010;53.640;10.578;2023-03-01T06:30:19;102308.53;;;23.88;30.89
59240;BME280;45010;53.640;10.578;2023-03-01T06:33:19;102323.38;;;23.97;30.46
59240;BME280;45010;53.640;10.578;2023-03-01T06:36:20;102320.72;;;23.97;30.76
59240;BME280;45010;53.640;10.578;2023-03-01T06:39:21;102328.72;;;23.97;30.86
59240;BME280;45010;53.640;10.578;2023-03-01T06:42:22;102332.41;;;23.96;30.85
59240;BME280;45010;53.640;10.578;2023-03-01T06:45:23;102319.63;;;23.91;31.11
59240;BME280;45010;53.640;10.578;2023-03-01T06:48:24;102324.53;;;23.88;31.07
59240;BME280;45010;53.640;10.578;2023-03-01T06:51:25;102294.53;;;23.64;31.08
59240;BME280;45010;53.640;10.578;2023-03-01T06:54:26;102335.19;;;23.88;31.27
59240;BME280;45010;53.640;10.578;2023-03-01T06:57:27;102347.75;;;23.94;30.99
59240;BME280;45010;53.640;10.578;2023-03-01T07:00:27;102316.00;;;23.77;31.03
59240;BME280;45010;53.640;10.578;2023-03-01T07:03:28;102338.13;;;23.93;31.23
59240;BME280;45010;53.640;10.578;2023-03-01T07:06:28;102333.78;;;23.92;31.15
59240;BME280;45010;53.640;10.578;2023-03-01T07:09:28;102327.44;;;23.93;30.95
59240;BME280;45010;53.640;10.578;2023-03-01T07:12:28;102320.44;;;23.92;31.08
59240;BME280;45010;53.640;10.578;2023-03-01T07:15:30;102326.78;;;23.91;31.32
59240;BME280;45010;53.640;10.578;2023-03-01T07:18:30;102313.47;;;23.91;31.08
59240;BME280;45010;53.640;10.578;2023-03-01T07:21:31;102309.78;;;23.92;31.30
59240;BME280;45010;53.640;10.578;2023-03-01T07:24:31;102303.84;;;23.90;31.20
59240;BME280;45010;53.640;10.578;2023-03-01T07:27:32;102311.81;;;23.90;31.36
59240;BME280;45010;53.640;10.578;2023-03-01T07:30:32;102312.19;;;23.87;31.45
59240;BME280;45010;53.640;10.578;2023-03-01T07:33:32;102296.59;;;23.84;31.48
59240;BME280;45010;53.640;10.578;2023-03-01T07:36:33;102309.16;;;23.90;31.36
59240;BME280;45010;53.640;10.578;2023-03-01T07:39:33;102301.16;;;23.90;31.52
59240;BME280;45010;53.640;10.578;2023-03-01T07:42:33;102300.53;;;23.88;31.52
59240;BME280;45010;53.640;10.578;2023-03-01T07:45:34;102311.81;;;23.90;31.12
59240;BME280;45010;53.640;10.578;2023-03-01T07:48:34;102313.47;;;23.91;30.91
59240;BME280;45010;53.640;10.578;2023-03-01T07:51:34;102305.47;;;23.91;31.11
59240;BME280;45010;53.640;10.578;2023-03-01T07:54:35;102309.16;;;23.90;30.93
59240;BME280;45010;53.640;10.578;2023-03-01T07:57:35;102312.66;;;23.90;31.25
59240;BME280;45010;53.640;10.578;2023-03-01T08:00:36;102314.66;;;23.88;30.85
59240;BME280;45010;53.640;10.578;2023-03-01T08:03:36;102305.59;;;23.83;31.11
59240;BME280;45010;53.640;10.578;2023-03-01T08:06:37;102313.88;;;23.88;31.16
59240;BME280;45010;53.640;10.578;2023-03-01T08:09:37;102320.84;;;23.89;31.02
59240;BME280;45010;53.640;10.578;2023-03-01T08:12:37;102315.50;;;23.89;31.13
59240;BME280;45010;53.640;10.578;2023-03-01T08:15:38;102323.69;;;23.87;31.39
59240;BME280;45010;53.640;10.578;2023-03-01T08:18:38;102333.50;;;23.87;31.24
59240;BME280;45010;53.640;10.578;2023-03-01T08:21:39;102333.50;;;23.87;31.00
59240;BME280;45010;53.640;10.578;2023-03-01T08:24:39;102314.69;;;23.73;31.27
59240;BME280;45010;53.640;10.578;2023-03-01T08:27:40;102338.84;;;23.87;31.24
59240;BME280;45010;53.640;10.578;2023-03-01T08:30:40;102333.50;;;23.87;31.34
59240;BME280;45010;53.640;10.578;2023-03-01T08:33:40;102338.03;;;23.86;31.46
59240;BME280;45010;53.640;10.578;2023-03-01T08:36:43;102331.41;;;23.82;31.35
59240;BME280;45010;53.640;10.578;2023-03-01T08:39:44;102335.53;;;23.85;31.60
59240;BME280;45010;53.640;10.578;2023-03-01T08:42:44;102331.84;;;23.86;31.63
59240;BME280;45010;53.640;10.578;2023-03-01T08:45:45;102326.53;;;23.86;31.74
59240;BME280;45010;53.640;10.578;2023-03-01T08:48:45;102324.53;;;23.88;31.66
59240;BME280;45010;53.640;10.578;2023-03-01T08:51:46;102314.66;;;23.88;31.89
59240;BME280;45010;53.640;10.578;2023-03-01T08:54:47;102324.13;;;23.91;31.92
59240;BME280;45010;53.640;10.578;2023-03-01T08:57:48;102312.84;;;23.89;32.20
59240;BME280;45010;53.640;10.578;2023-03-01T09:00:48;102325.41;;;23.95;32.28
59240;BME280;45010;53.640;10.578;2023-03-01T09:03:49;102323.38;;;23.97;32.38
59240;BME280;45010;53.640;10.578;2023-03-01T09:06:49;102332.66;;;24.01;32.46
59240;BME280;45010;53.640;10.578;2023-03-01T09:09:49;102329.59;;;24.04;32.69
59240;BME280;45010;53.640;10.578;2023-03-01T09:12:53;102329.28;;;24.08;32.77
59240;BME280;45010;53.640;10.578;2023-03-01T09:15:53;102328.88;;;24.11;32.62
59240;BME280;45010;53.640;10.578;2023-03-01T09:18:54;102314.94;;;24.09;32.63
59240;BME280;45010;53.640;10.578;2023-03-01T09:21:54;102326.13;;;24.19;32.77
59240;BME280;45010;53.640;10.578;2023-03-01T09:24:56;102317.47;;;24.17;32.99
59240;BME280;45010;53.640;10.578;2023-03-01T09:27:56;102329.03;;;24.24;32.83
59240;BME280;45010;53.640;10.578;2023-03-01T09:31:00;102288.28;;;24.09;32.67
59240;BME280;45010;53.640;10.578;2023-03-01T09:34:01;102321.75;;;24.33;32.65
59240;BME280;45010;53.640;10.578;2023-03-01T09:37:01;102326.50;;;24.38;32.69
59240;BME280;45010;53.640;10.578;2023-03-01T09:40:03;102323.44;;;24.41;32.36
59240;BME280;45010;53.640;10.578;2023-03-01T09:43:16;102323.06;;;24.44;32.68
59240;BME280;45010;53.640;10.578;2023-03-01T09:46:22;102332.09;;;24.43;32.42
59240;BME280;45010;53.640;10.578;2023-03-01T09:49:27;102330.44;;;24.42;32.64
59240;BME280;45010;53.640;10.578;2023-03-01T10:00:07;102334.25;;;24.54;32.40
59240;BME280;45010;53.640;10.578;2023-03-01T10:06:31;102336.41;;;24.66;32.64
59240;BME280;45010;53.640;10.578;2023-03-01T10:09:33;102312.53;;;24.57;32.81
59240;BME280;45010;53.640;10.578;2023-03-01T10:12:37;102331.31;;;24.71;32.61
59240;BME280;45010;53.640;10.578;2023-03-01T10:15:44;102328.63;;;24.71;32.66
59240;BME280;45010;53.640;10.578;2023-03-01T10:18:53;102326.22;;;24.76;32.37
59240;BME280;45010;53.640;10.578;2023-03-01T10:21:57;102319.25;;;24.75;32.62
59240;BME280;45010;53.640;10.578;2023-03-01T10:25:02;102321.78;;;24.83;32.51
59240;BME280;45010;53.640;10.578;2023-03-01T10:28:28;102323.06;;;24.88;32.50
59240;BME280;45010;53.640;10.578;2023-03-01T10:31:48;102319.38;;;24.89;32.36
59240;BME280;45010;53.640;10.578;2023-03-01T10:34:49;102316.50;;;24.90;32.08
59240;BME280;45010;53.640;10.578;2023-03-01T10:38:04;102307.66;;;24.90;32.25
59240;BME280;45010;53.640;10.578;2023-03-01T10:41:06;102309.59;;;24.96;32.18
59240;BME280;45010;53.640;10.578;2023-03-01T10:44:11;102309.19;;;24.99;32.18
59240;BME280;45010;53.640;10.578;2023-03-01T10:47:31;102301.59;;;25.03;32.48
59240;BME280;45010;53.640;10.578;2023-03-01T10:50:32;102304.69;;;25.06;32.25
59240;BME280;45010;53.640;10.578;2023-03-01T10:56:49;102293.00;;;25.07;32.19
59240;BME280;45010;53.640;10.578;2023-03-01T11:00:00;102296.31;;;25.09;32.12
59240;BME280;45010;53.640;10.578;2023-03-01T11:03:12;102287.09;;;25.12;32.18
59240;BME280;45010;53.640;10.578;2023-03-01T11:09:21;102298.22;;;25.22;31.87
59240;BME280;45010;53.640;10.578;2023-03-01T11:12:22;102287.53;;;25.16;32.00
59240;BME280;45010;53.640;10.578;2023-03-01T11:15:27;102288.81;;;25.27;31.78
59240;BME280;45010;53.640;10.578;2023-03-01T11:18:29;102280.97;;;25.25;31.79
59240;BME280;45010;53.640;10.578;2023-03-01T11:21:32;102278.06;;;25.20;32.30
59240;BME280;45010;53.640;10.578;2023-03-01T11:27:46;102293.16;;;25.34;30.87
59240;BME280;45010;53.640;10.578;2023-03-01T11:31:03;102289.47;;;25.35;30.35
59240;BME280;45010;53.640;10.578;2023-03-01T11:34:15;102286.19;;;25.33;29.85
59240;BME280;45010;53.640;10.578;2023-03-01T11:37:40;102285.16;;;25.34;29.25
59240;BME280;45010;53.640;10.578;2023-03-01T11:41:11;102272.81;;;25.33;29.20
59240;BME280;45010;53.640;10.578;2023-03-01T11:44:19;102263.56;;;25.29;28.84
59240;BME280;45010;53.640;10.578;2023-03-01T11:47:28;102269.13;;;25.34;28.57
59240;BME280;45010;53.640;10.578;2023-03-01T11:50:41;102267.50;;;25.33;28.28
59240;BME280;45010;53.640;10.578;2023-03-01T12:01:12;102266.03;;;25.31;27.56
59240;BME280;45010;53.640;10.578;2023-03-01T12:07:46;102257.19;;;25.30;27.33
59240;BME280;45010;53.640;10.578;2023-03-01T12:11:16;102262.53;;;25.30;26.56
59240;BME280;45010;53.640;10.578;2023-03-01T12:14:31;102257.59;;;25.27;26.65
59240;BME280;45010;53.640;10.578;2023-03-01T12:18:21;102262.94;;;25.27;26.69
59240;BME280;45010;53.640;10.578;2023-03-01T12:21:30;102255.31;;;25.24;26.54
59240;BME280;45010;53.640;10.578;2023-03-01T12:25:07;102243.22;;;25.28;26.89
59240;BME280;45010;53.640;10.578;2023-03-01T12:28:22;102231.28;;;25.24;26.73
59240;BME280;45010;53.640;10.578;2023-03-01T12:31:35;102221.63;;;25.23;26.71
59240;BME280;45010;53.640;10.578;2023-03-01T12:38:13;102217.31;;;25.22;26.80
59240;BME280;45010;53.640;10.578;2023-03-01T12:48:12;102209.91;;;25.24;26.27
59240;BME280;45010;53.640;10.578;2023-03-01T12:51:23;102215.69;;;25.28;26.02
59240;BME280;45010;53.640;10.578;2023-03-01T12:54:32;102197.59;;;25.23;25.84
59240;BME280;45010;53.640;10.578;2023-03-01T12:57:38;102206.88;;;25.27;25.93
59240;BME280;45010;53.640;10.578;2023-03-01T13:01:03;102194.31;;;25.28;25.63
59240;BME280;45010;53.640;10.578;2023-03-01T13:07:37;102195.16;;;25.28;25.16
59240;BME280;45010;53.640;10.578;2023-03-01T13:10:44;102192.50;;;25.28;25.10
59240;BME280;45010;53.640;10.578;2023-03-01T13:13:46;102195.16;;;25.28;25.17
59240;BME280;45010;53.640;10.578;2023-03-01T13:16:50;102180.75;;;25.22;25.10
59240;BME280;45010;53.640;10.578;2023-03-01T13:19:58;102181.97;;;25.20;25.14
59240;BME280;45010;53.640;10.578;2023-03-01T13:26:26;102184.44;;;25.21;24.86
59240;BME280;45010;53.640;10.578;2023-03-01T13:29:26;102159.09;;;25.04;24.85
59240;BME280;45010;53.640;10.578;2023-03-01T13:35:42;102175.19;;;25.17;25.85
59240;BME280;45010;53.640;10.578;2023-03-01T13:38:56;102177.06;;;25.23;25.64
59240;BME280;45010;53.640;10.578;2023-03-01T13:41:57;102173.38;;;25.24;25.91
59240;BME280;45010;53.640;10.578;2023-03-01T13:44:58;102177.91;;;25.37;25.62
59240;BME280;45010;53.640;10.578;2023-03-01T13:48:02;102151.97;;;25.11;26.16
59240;BME280;45010;53.640;10.578;2023-03-01T13:51:08;102114.53;;;24.91;25.98
59240;BME280;45010;53.640;10.578;2023-03-01T13:54:11;102160.59;;;25.20;26.35
59240;BME280;45010;53.640;10.578;2023-03-01T13:57:20;102161.47;;;25.27;26.45
59240;BME280;45010;53.640;10.578;2023-03-01T14:00:36;102162.28;;;25.28;26.83
59240;BME280;45010;53.640;10.578;2023-03-01T14:03:41;102152.44;;;25.28;26.90
59240;BME280;45010;53.640;10.578;2023-03-01T14:06:41;102162.69;;;25.31;27.18
59240;BME280;45010;53.640;10.578;2023-03-01T14:09:44;102132.25;;;25.19;27.03
59240;BME280;45010;53.640;10.578;2023-03-01T14:16:08;102145.69;;;25.32;27.21
59240;BME280;45010;53.640;10.578;2023-03-01T14:19:24;102143.41;;;25.29;27.36
59240;BME280;45010;53.640;10.578;2023-03-01T14:22:32;102130.47;;;25.26;27.52
59240;BME280;45010;53.640;10.578;2023-03-01T14:25:35;102139.69;;;25.30;26.98
59240;BME280;45010;53.640;10.578;2023-03-01T14:28:36;102142.59;;;25.35;26.54
59240;BME280;45010;53.640;10.578;2023-03-01T14:31:39;102137.25;;;25.35;25.75
59240;BME280;45010;53.640;10.578;2023-03-01T14:34:50;102140.09;;;25.27;25.48
59240;BME280;45010;53.640;10.578;2023-03-01T14:37:51;102143.41;;;25.29;25.35
59240;BME280;45010;53.640;10.578;2023-03-01T14:40:55;102135.38;;;25.29;25.00
59240;BME280;45010;53.640;10.578;2023-03-01T14:43:59;102130.22;;;25.28;24.77
59240;BME280;45010;53.640;10.578;2023-03-01T14:47:00;102130.22;;;25.28;24.30
59240;BME280;45010;53.640;10.578;2023-03-01T14:50:18;102121.19;;;25.22;24.26
59240;BME280;45010;53.640;10.578;2023-03-01T14:53:26;102122.44;;;25.26;24.13
59240;BME280;45010;53.640;10.578;2023-03-01T14:56:43;102110.09;;;25.18;23.75
59240;BME280;45010;53.640;10.578;2023-03-01T14:59:44;102112.53;;;25.20;23.86
59240;BME280;45010;53.640;10.578;2023-03-01T15:02:48;102108.03;;;25.20;24.05
59240;BME280;45010;53.640;10.578;2023-03-01T15:05:50;102106.59;;;25.18;24.38
59240;BME280;45010;53.640;10.578;2023-03-01T15:08:53;102105.56;;;25.19;24.63
59240;BME280;45010;53.640;10.578;2023-03-01T15:11:54;102109.06;;;25.19;24.73
59240;BME280;45010;53.640;10.578;2023-03-01T15:14:58;102093.66;;;25.15;24.72
59240;BME280;45010;53.640;10.578;2023-03-01T15:18:00;102100.03;;;25.20;25.35
59240;BME280;45010;53.640;10.578;2023-03-01T15:21:06;102091.59;;;25.17;25.47
59240;BME280;45010;53.640;10.578;2023-03-01T15:27:20;102085.84;;;25.20;25.68
59240;BME280;45010;53.640;10.578;2023-03-01T15:30:32;102085.25;;;25.24;25.71
59240;BME280;45010;53.640;10.578;2023-03-01T15:33:38;102085.84;;;25.20;25.93
59240;BME280;45010;53.640;10.578;2023-03-01T15:36:44;102093.06;;;25.26;26.14
59240;BME280;45010;53.640;10.578;2023-03-01T15:39:56;102098.81;;;25.23;26.18
59240;BME280;45010;53.640;10.578;2023-03-01T15:42:58;102097.56;;;25.19;26.43
59240;BME280;45010;53.640;10.578;2023-03-01T15:45:59;102108.88;;;25.28;26.37
59240;BME280;45010;53.640;10.578;2023-03-01T15:49:05;102109.72;;;25.28;26.59
59240;BME280;45010;53.640;10.578;2023-03-01T15:52:49;102121.00;;;25.30;26.68
59240;BME280;45010;53.640;10.578;2023-03-01T15:55:50;102116.69;;;25.29;26.82
59240;BME280;45010;53.640;10.578;2023-03-01T15:58:51;102107.66;;;25.30;26.77
59240;BME280;45010;53.640;10.578;2023-03-01T16:01:51;102118.31;;;25.30;26.88
59240;BME280;45010;53.640;10.578;2023-03-01T16:04:51;102108.88;;;25.28;26.99
59240;BME280;45010;53.640;10.578;2023-03-01T16:07:54;102107.25;;;25.33;27.11
59240;BME280;45010;53.640;10.578;2023-03-01T16:10:54;102100.28;;;25.32;27.04
59240;BME280;45010;53.640;10.578;2023-03-01T16:13:54;102101.09;;;25.33;27.09
59240;BME280;45010;53.640;10.578;2023-03-01T16:16:55;102104.59;;;25.33;27.27
59240;BME280;45010;53.640;10.578;2023-03-01T16:19:55;102098.22;;;25.34;27.38
59240;BME280;45010;53.640;10.578;2023-03-01T16:22:59;102106.03;;;25.36;27.34
59240;BME280;45010;53.640;10.578;2023-03-01T16:26:00;102098.03;;;25.36;27.38
59240;BME280;45010;53.640;10.578;2023-03-01T16:29:01;102099.03;;;25.35;27.68
59240;BME280;45010;53.640;10.578;2023-03-01T16:32:02;102098.59;;;25.31;27.64
59240;BME280;45010;53.640;10.578;2023-03-01T16:35:02;102106.84;;;25.36;27.42
59240;BME280;45010;53.640;10.578;2023-03-01T16:38:03;102101.91;;;25.33;27.45
59240;BME280;45010;53.640;10.578;2023-03-01T16:41:03;102111.16;;;25.37;27.56
59240;BME280;45010;53.640;10.578;2023-03-01T16:44:03;102090.41;;;25.26;27.59
59240;BME280;45010;53.640;10.578;2023-03-01T16:47:04;102094.53;;;25.35;27.70
59240;BME280;45010;53.640;10.578;2023-03-01T16:50:04;102109.94;;;25.40;28.02